Terminal Aerodrome Forecast
Issued by NWS Hastings, NE

Home | Current Version | Previous Version | Text Only | Print | Product List | Glossary On
Versions: 1 2 3 4 5 6 7 8 9 10 11 12 13 14 15 16 17 18
000
FTUS43 KGID 200520
TAFGRI
TAF
KGRI 200520Z 2006/2106 VRB06KT P6SM VCTS FEW070CB BKN150
     FM200900 VRB06KT P6SM BKN150
     FM201500 VRB06KT P6SM SCT090 PROB30 2018/2021 -TSRA BKN040CB
     FM202100 20010KT P6SM SCT100 PROB30 2021/2102 -TSRA BKN040CB
     FM210200 VRB06KT P6SM BKN080 PROB30 2102/2106 -TSRA BKN040CB=

USA.gov is the U.S. government's official web portal to all federal, state and local government web resources and services.